sensor_id;sensor_type;location;lat;lon;timestamp;pressure;altitude;pressure_sealevel;temperature;humidity
9672;BME280;4874;43.568;27.824;2022-11-20T00:01:24;98645.34;;;14.14;100.00
9672;BME280;4874;43.568;27.824;2022-11-20T00:03:52;98641.53;;;14.17;100.00
9672;BME280;4874;43.568;27.824;2022-11-20T00:06:20;98647.69;;;14.26;100.00
9672;BME280;4874;43.568;27.824;2022-11-20T00:08:48;98656.81;;;14.23;100.00
9672;BME280;4874;43.568;27.824;2022-11-20T00:11:20;98643.66;;;14.22;100.00
9672;BME280;4874;43.568;27.824;2022-11-20T00:13:50;98642.19;;;14.11;100.00
9672;BME280;4874;43.568;27.824;2022-11-20T00:16:19;98648.50;;;14.26;100.00
9672;BME280;4874;43.568;27.824;2022-11-20T00:18:47;98639.81;;;14.24;100.00
9672;BME280;4874;43.568;27.824;2022-11-20T00:21:16;98637.47;;;14.29;100.00
9672;BME280;4874;43.568;27.824;2022-11-20T00:23:44;98641.13;;;14.36;100.00
9672;BME280;4874;43.568;27.824;2022-11-20T00:26:13;98624.72;;;14.39;100.00
9672;BME280;4874;43.568;27.824;2022-11-20T00:28:41;98626.34;;;14.48;100.00
9672;BME280;4874;43.568;27.824;2022-11-20T00:31:13;98612.16;;;14.48;100.00
9672;BME280;4874;43.568;27.824;2022-11-20T00:33:41;98621.59;;;14.58;100.00
9672;BME280;4874;43.568;27.824;2022-11-20T00:38:39;98634.72;;;14.68;100.00
9672;BME280;4874;43.568;27.824;2022-11-20T00:41:08;98630.31;;;14.75;100.00
9672;BME280;4874;43.568;27.824;2022-11-20T00:43:36;98625.66;;;14.91;100.00
9672;BME280;4874;43.568;27.824;2022-11-20T00:46:08;98615.91;;;14.98;100.00
9672;BME280;4874;43.568;27.824;2022-11-20T00:48:35;98603.31;;;15.07;100.00
9672;BME280;4874;43.568;27.824;2022-11-20T00:51:02;98605.56;;;15.18;100.00
9672;BME280;4874;43.568;27.824;2022-11-20T00:53:29;98582.81;;;15.22;100.00
9672;BME280;4874;43.568;27.824;2022-11-20T00:55:58;98591.66;;;15.37;100.00
9672;BME280;4874;43.568;27.824;2022-11-20T00:58:29;98603.50;;;15.43;100.00
9672;BME280;4874;43.568;27.824;2022-11-20T01:01:17;98600.53;;;15.52;100.00
9672;BME280;4874;43.568;27.824;2022-11-20T01:03:48;98588.47;;;15.56;100.00
9672;BME280;4874;43.568;27.824;2022-11-20T01:06:20;98589.75;;;15.60;100.00
9672;BME280;4874;43.568;27.824;2022-11-20T01:08:49;98589.38;;;15.63;100.00
9672;BME280;4874;43.568;27.824;2022-11-20T01:11:19;98588.63;;;15.69;100.00
9672;BME280;4874;43.568;27.824;2022-11-20T01:13:47;98584.31;;;15.68;100.00
9672;BME280;4874;43.568;27.824;2022-11-20T01:16:20;98574.34;;;15.62;100.00
9672;BME280;4874;43.568;27.824;2022-11-20T01:18:49;98576.00;;;15.78;100.00
9672;BME280;4874;43.568;27.824;2022-11-20T01:21:21;98582.19;;;15.78;100.00
9672;BME280;4874;43.568;27.824;2022-11-20T01:23:49;98595.78;;;15.98;100.00
9672;BME280;4874;43.568;27.824;2022-11-20T01:26:19;98586.00;;;16.05;100.00
9672;BME280;4874;43.568;27.824;2022-11-20T01:28:46;98565.75;;;16.17;100.00
9672;BME280;4874;43.568;27.824;2022-11-20T01:31:25;98557.28;;;16.34;100.00
9672;BME280;4874;43.568;27.824;2022-11-20T01:33:54;98566.56;;;16.53;100.00
9672;BME280;4874;43.568;27.824;2022-11-20T01:36:23;98560.06;;;16.62;100.00
9672;BME280;4874;43.568;27.824;2022-11-20T01:38:51;98564.63;;;16.89;100.00
9672;BME280;4874;43.568;27.824;2022-11-20T01:41:20;98561.56;;;16.92;100.00
9672;BME280;4874;43.568;27.824;2022-11-20T01:44:06;98547.31;;;16.92;100.00
9672;BME280;4874;43.568;27.824;2022-11-20T01:46:35;98549.22;;;16.98;100.00
9672;BME280;4874;43.568;27.824;2022-11-20T01:49:22;98540.34;;;16.97;100.00
9672;BME280;4874;43.568;27.824;2022-11-20T01:51:50;98531.78;;;17.08;100.00
9672;BME280;4874;43.568;27.824;2022-11-20T01:54:27;98536.97;;;17.16;100.00
9672;BME280;4874;43.568;27.824;2022-11-20T01:56:57;98528.31;;;17.21;100.00
9672;BME280;4874;43.568;27.824;2022-11-20T01:59:27;98531.63;;;17.16;100.00
9672;BME280;4874;43.568;27.824;2022-11-20T02:01:55;98515.13;;;17.19;100.00
9672;BME280;4874;43.568;27.824;2022-11-20T02:04:23;98529.69;;;17.38;100.00
9672;BME280;4874;43.568;27.824;2022-11-20T02:06:57;98525.16;;;17.45;100.00
9672;BME280;4874;43.568;27.824;2022-11-20T02:09:26;98508.13;;;17.25;100.00
9672;BME280;4874;43.568;27.824;2022-11-20T02:11:54;98539.63;;;17.44;100.00
9672;BME280;4874;43.568;27.824;2022-11-20T02:14:22;98526.63;;;17.41;100.00
9672;BME280;4874;43.568;27.824;2022-11-20T02:16:49;98527.25;;;17.43;100.00
9672;BME280;4874;43.568;27.824;2022-11-20T02:19:27;98526.22;;;17.44;100.00
9672;BME280;4874;43.568;27.824;2022-11-20T02:24:24;98534.03;;;17.39;100.00
9672;BME280;4874;43.568;27.824;2022-11-20T02:26:54;98529.94;;;17.43;100.00
9672;BME280;4874;43.568;27.824;2022-11-20T02:29:27;98534.94;;;17.46;100.00
9672;BME280;4874;43.568;27.824;2022-11-20T02:31:56;98519.81;;;17.45;100.00
9672;BME280;4874;43.568;27.824;2022-11-20T02:34:25;98517.78;;;17.47;100.00
9672;BME280;4874;43.568;27.824;2022-11-20T02:36:52;98520.09;;;17.50;100.00
9672;BME280;4874;43.568;27.824;2022-11-20T02:39:20;98511.44;;;17.54;100.00
9672;BME280;4874;43.568;27.824;2022-11-20T02:41:49;98522.88;;;17.42;100.00
9672;BME280;4874;43.568;27.824;2022-11-20T02:44:16;98516.56;;;17.49;100.00
9672;BME280;4874;43.568;27.824;2022-11-20T02:46:43;98487.53;;;17.32;100.00
9672;BME280;4874;43.568;27.824;2022-11-20T02:49:09;98509.38;;;17.50;100.00
9672;BME280;4874;43.568;27.824;2022-11-20T02:51:36;98501.31;;;17.50;100.00
9672;BME280;4874;43.568;27.824;2022-11-20T02:54:03;98503.63;;;17.59;100.00
9672;BME280;4874;43.568;27.824;2022-11-20T02:56:30;98489.75;;;17.56;100.00
9672;BME280;4874;43.568;27.824;2022-11-20T02:58:57;98491.41;;;17.57;100.00
9672;BME280;4874;43.568;27.824;2022-11-20T03:01:23;98484.41;;;17.56;100.00
9672;BME280;4874;43.568;27.824;2022-11-20T03:03:50;98477.41;;;17.62;100.00
9672;BME280;4874;43.568;27.824;2022-11-20T03:06:18;98482.97;;;17.60;100.00
9672;BME280;4874;43.568;27.824;2022-11-20T03:08:45;98478.63;;;17.66;100.00
9672;BME280;4874;43.568;27.824;2022-11-20T03:11:12;98493.13;;;17.71;100.00
9672;BME280;4874;43.568;27.824;2022-11-20T03:13:38;98484.84;;;17.66;100.00
9672;BME280;4874;43.568;27.824;2022-11-20T03:16:07;98471.44;;;17.73;100.00
9672;BME280;4874;43.568;27.824;2022-11-20T03:18:34;98487.63;;;17.86;100.00
9672;BME280;4874;43.568;27.824;2022-11-20T03:21:01;98490.50;;;17.84;100.00
9672;BME280;4874;43.568;27.824;2022-11-20T03:23:30;98476.44;;;17.82;100.00
9672;BME280;4874;43.568;27.824;2022-11-20T03:26:30;98475.41;;;17.83;100.00
9672;BME280;4874;43.568;27.824;2022-11-20T03:29:03;98480.75;;;17.77;100.00
9672;BME280;4874;43.568;27.824;2022-11-20T03:31:33;98472.91;;;17.75;100.00
9672;BME280;4874;43.568;27.824;2022-11-20T03:34:00;98465.91;;;17.87;100.00
9672;BME280;4874;43.568;27.824;2022-11-20T03:36:28;98452.25;;;17.76;100.00
9672;BME280;4874;43.568;27.824;2022-11-20T03:38:56;98470.09;;;17.96;100.00
9672;BME280;4874;43.568;27.824;2022-11-20T03:41:28;98461.34;;;17.81;100.00
9672;BME280;4874;43.568;27.824;2022-11-20T03:43:59;98461.56;;;17.86;100.00
9672;BME280;4874;43.568;27.824;2022-11-20T03:46:27;98456.47;;;18.04;100.00
9672;BME280;4874;43.568;27.824;2022-11-20T03:48:55;98450.25;;;17.97;100.00
9672;BME280;4874;43.568;27.824;2022-11-20T03:51:30;98443.66;;;18.00;100.00
9672;BME280;4874;43.568;27.824;2022-11-20T03:53:59;98409.53;;;17.87;100.00
9672;BME280;4874;43.568;27.824;2022-11-20T03:56:31;98440.13;;;17.99;100.00
9672;BME280;4874;43.568;27.824;2022-11-20T03:58:58;98443.22;;;17.96;100.00
9672;BME280;4874;43.568;27.824;2022-11-20T04:01:27;98427.72;;;17.98;100.00
9672;BME280;4874;43.568;27.824;2022-11-20T04:03:55;98397.09;;;17.80;100.00
9672;BME280;4874;43.568;27.824;2022-11-20T04:06:25;98406.22;;;17.85;100.00
9672;BME280;4874;43.568;27.824;2022-11-20T04:08:56;98419.03;;;17.90;100.00
9672;BME280;4874;43.568;27.824;2022-11-20T04:11:26;98404.78;;;17.89;100.00
9672;BME280;4874;43.568;27.824;2022-11-20T04:13:54;98414.69;;;17.82;100.00
9672;BME280;4874;43.568;27.824;2022-11-20T04:16:23;98406.63;;;17.82;100.00
9672;BME280;4874;43.568;27.824;2022-11-20T04:18:56;98418.78;;;17.78;100.00
9672;BME280;4874;43.568;27.824;2022-11-20T04:21:24;98410.53;;;17.80;100.00
9672;BME280;4874;43.568;27.824;2022-11-20T04:23:51;98399.78;;;17.80;100.00
9672;BME280;4874;43.568;27.824;2022-11-20T04:26:19;98409.31;;;17.76;100.00
9672;BME280;4874;43.568;27.824;2022-11-20T04:28:47;98398.09;;;17.59;100.00
9672;BME280;4874;43.568;27.824;2022-11-20T04:31:16;98420.81;;;17.63;100.00
9672;BME280;4874;43.568;27.824;2022-11-20T04:33:43;98411.16;;;17.69;100.00
9672;BME280;4874;43.568;27.824;2022-11-20T04:36:12;98426.00;;;17.71;100.00
9672;BME280;4874;43.568;27.824;2022-11-20T04:38:39;98432.84;;;17.74;100.00
9672;BME280;4874;43.568;27.824;2022-11-20T04:41:09;98441.69;;;17.74;100.00
9672;BME280;4874;43.568;27.824;2022-11-20T04:43:38;98432.41;;;17.70;100.00
9672;BME280;4874;43.568;27.824;2022-11-20T04:46:05;98435.31;;;17.69;100.00
9672;BME280;4874;43.568;27.824;2022-11-20T04:48:32;98436.53;;;17.66;100.00
9672;BME280;4874;43.568;27.824;2022-11-20T04:51:03;98431.56;;;17.63;100.00
9672;BME280;4874;43.568;27.824;2022-11-20T04:53:30;98441.25;;;17.64;100.00
9672;BME280;4874;43.568;27.824;2022-11-20T04:56:01;98445.97;;;17.49;100.00
9672;BME280;4874;43.568;27.824;2022-11-20T04:58:28;98445.59;;;17.58;100.00
9672;BME280;4874;43.568;27.824;2022-11-20T05:01:10;98448.22;;;17.52;100.00
9672;BME280;4874;43.568;27.824;2022-11-20T05:03:38;98457.31;;;17.51;100.00
9672;BME280;4874;43.568;27.824;2022-11-20T05:06:09;98450.34;;;17.56;100.00
9672;BME280;4874;43.568;27.824;2022-11-20T05:08:36;98453.22;;;17.55;100.00
9672;BME280;4874;43.568;27.824;2022-11-20T05:11:08;98463.75;;;17.50;100.00
9672;BME280;4874;43.568;27.824;2022-11-20T05:13:36;98457.75;;;17.48;100.00
9672;BME280;4874;43.568;27.824;2022-11-20T05:16:08;98469.13;;;17.56;100.00
9672;BME280;4874;43.568;27.824;2022-11-20T05:18:36;98461.06;;;17.56;100.00
9672;BME280;4874;43.568;27.824;2022-11-20T05:21:03;98449.06;;;17.46;100.00
9672;BME280;4874;43.568;27.824;2022-11-20T05:23:31;98467.09;;;17.65;100.00
9672;BME280;4874;43.568;27.824;2022-11-20T05:25:59;98471.59;;;17.58;100.00
9672;BME280;4874;43.568;27.824;2022-11-20T05:28:28;98467.06;;;17.58;100.00
9672;BME280;4874;43.568;27.824;2022-11-20T05:30:55;98464.78;;;17.62;100.00
9672;BME280;4874;43.568;27.824;2022-11-20T05:33:22;98470.97;;;17.56;100.00
9672;BME280;4874;43.568;27.824;2022-11-20T05:35:48;98453.22;;;17.55;100.00
9672;BME280;4874;43.568;27.824;2022-11-20T05:38:15;98460.25;;;17.56;100.00
9672;BME280;4874;43.568;27.824;2022-11-20T05:40:42;98454.88;;;17.56;100.00
9672;BME280;4874;43.568;27.824;2022-11-20T05:43:09;98453.44;;;17.60;100.00
9672;BME280;4874;43.568;27.824;2022-11-20T05:45:36;98455.50;;;17.58;100.00
9672;BME280;4874;43.568;27.824;2022-11-20T05:48:03;98455.50;;;17.58;100.00
9672;BME280;4874;43.568;27.824;2022-11-20T05:50:30;98452.59;;;17.53;100.00
9672;BME280;4874;43.568;27.824;2022-11-20T05:53:00;98457.75;;;17.54;100.00
9672;BME280;4874;43.568;27.824;2022-11-20T05:55:27;98467.88;;;17.59;100.00
9672;BME280;4874;43.568;27.824;2022-11-20T05:57:54;98468.50;;;17.54;100.00
9672;BME280;4874;43.568;27.824;2022-11-20T06:00:22;98460.88;;;17.58;100.00
9672;BME280;4874;43.568;27.824;2022-11-20T06:02:49;98462.72;;;17.64;100.00
9672;BME280;4874;43.568;27.824;2022-11-20T06:05:15;98473.47;;;17.64;100.00
9672;BME280;4874;43.568;27.824;2022-11-20T06:07:42;98463.78;;;17.63;100.00
9672;BME280;4874;43.568;27.824;2022-11-20T06:10:10;98473.09;;;17.74;100.00
9672;BME280;4874;43.568;27.824;2022-11-20T06:12:36;98466.47;;;17.70;100.00
9672;BME280;4874;43.568;27.824;2022-11-20T06:15:04;98457.34;;;17.57;100.00
9672;BME280;4874;43.568;27.824;2022-11-20T06:17:31;98464.63;;;17.70;100.00
9672;BME280;4874;43.568;27.824;2022-11-20T06:19:58;98464.00;;;17.68;100.00
9672;BME280;4874;43.568;27.824;2022-11-20T06:22:24;98462.78;;;17.77;100.00
9672;BME280;4874;43.568;27.824;2022-11-20T06:24:51;98467.97;;;17.85;100.00
9672;BME280;4874;43.568;27.824;2022-11-20T06:27:18;98470.66;;;17.85;100.00
9672;BME280;4874;43.568;27.824;2022-11-20T06:29:45;98445.00;;;17.70;100.00
9672;BME280;4874;43.568;27.824;2022-11-20T06:32:11;98467.56;;;17.88;100.00
9672;BME280;4874;43.568;27.824;2022-11-20T06:34:38;98472.13;;;17.88;100.00
9672;BME280;4874;43.568;27.824;2022-11-20T06:37:05;98470.03;;;17.90;100.00
9672;BME280;4874;43.568;27.824;2022-11-20T06:39:31;98463.09;;;18.21;100.00
9672;BME280;4874;43.568;27.824;2022-11-20T06:41:58;98459.13;;;18.04;100.00
9672;BME280;4874;43.568;27.824;2022-11-20T06:44:25;98467.63;;;18.21;100.00
9672;BME280;4874;43.568;27.824;2022-11-20T06:46:52;98456.69;;;18.16;100.00
9672;BME280;4874;43.568;27.824;2022-11-20T06:49:19;98461.41;;;18.20;100.00
9672;BME280;4874;43.568;27.824;2022-11-20T06:51:46;98449.88;;;18.13;100.00
9672;BME280;4874;43.568;27.824;2022-11-20T06:54:13;98446.56;;;18.24;100.00
9672;BME280;4874;43.568;27.824;2022-11-20T06:56:39;98443.06;;;18.30;100.00
9672;BME280;4874;43.568;27.824;2022-11-20T06:59:06;98433.75;;;18.39;100.00
9672;BME280;4874;43.568;27.824;2022-11-20T07:01:33;98451.34;;;18.48;100.00
9672;BME280;4874;43.568;27.824;2022-11-20T07:04:01;98424.28;;;18.43;100.00
9672;BME280;4874;43.568;27.824;2022-11-20T07:06:29;98450.34;;;18.56;100.00
9672;BME280;4874;43.568;27.824;2022-11-20T07:08:56;98454.66;;;18.63;100.00
9672;BME280;4874;43.568;27.824;2022-11-20T07:11:24;98438.94;;;18.60;100.00
9672;BME280;4874;43.568;27.824;2022-11-20T07:13:51;98443.91;;;18.63;100.00
9672;BME280;4874;43.568;27.824;2022-11-20T07:16:18;98440.00;;;18.59;100.00
9672;BME280;4874;43.568;27.824;2022-11-20T07:18:44;98449.69;;;18.73;100.00
9672;BME280;4874;43.568;27.824;2022-11-20T07:21:15;98453.63;;;18.71;100.00
9672;BME280;4874;43.568;27.824;2022-11-20T07:23:42;98456.09;;;18.72;100.00
9672;BME280;4874;43.568;27.824;2022-11-20T07:26:10;98464.78;;;18.74;100.00
9672;BME280;4874;43.568;27.824;2022-11-20T07:28:37;98413.09;;;18.46;100.00
9672;BME280;4874;43.568;27.824;2022-11-20T07:31:05;98452.38;;;18.87;100.00
9672;BME280;4874;43.568;27.824;2022-11-20T07:33:33;98449.47;;;18.88;100.00
9672;BME280;4874;43.568;27.824;2022-11-20T07:36:00;98465.81;;;18.93;100.00
9672;BME280;4874;43.568;27.824;2022-11-20T07:38:28;98449.03;;;18.91;100.00
9672;BME280;4874;43.568;27.824;2022-11-20T07:40:55;98456.28;;;18.97;100.00
9672;BME280;4874;43.568;27.824;2022-11-20T07:43:24;98459.19;;;18.96;100.00
9672;BME280;4874;43.568;27.824;2022-11-20T07:45:51;98453.59;;;19.04;100.00
9672;BME280;4874;43.568;27.824;2022-11-20T07:48:18;98463.91;;;19.07;100.00
9672;BME280;4874;43.568;27.824;2022-11-20T07:50:45;98462.47;;;19.11;100.00
9672;BME280;4874;43.568;27.824;2022-11-20T07:53:12;98457.72;;;19.13;100.00
9672;BME280;4874;43.568;27.824;2022-11-20T07:55:40;98456.66;;;19.14;100.00
9672;BME280;4874;43.568;27.824;2022-11-20T07:58:06;98452.50;;;19.11;100.00
9672;BME280;4874;43.568;27.824;2022-11-20T08:00:33;98451.06;;;19.15;100.00
9672;BME280;4874;43.568;27.824;2022-11-20T08:03:03;98456.81;;;19.25;100.00
9672;BME280;4874;43.568;27.824;2022-11-20T08:05:30;98414.06;;;18.91;100.00
9672;BME280;4874;43.568;27.824;2022-11-20T08:07:57;98453.31;;;19.25;100.00
9672;BME280;4874;43.568;27.824;2022-11-20T08:10:24;98460.59;;;19.18;100.00
9672;BME280;4874;43.568;27.824;2022-11-20T08:12:52;98463.88;;;19.26;100.00
9672;BME280;4874;43.568;27.824;2022-11-20T08:15:40;98485.84;;;19.30;100.00
9672;BME280;4874;43.568;27.824;2022-11-20T08:18:11;98482.09;;;19.31;100.00
9672;BME280;4874;43.568;27.824;2022-11-20T08:21:01;98479.84;;;19.21;100.00
9672;BME280;4874;43.568;27.824;2022-11-20T08:23:28;98488.91;;;19.27;100.00
9672;BME280;4874;43.568;27.824;2022-11-20T08:25:55;98492.44;;;19.34;100.00
9672;BME280;4874;43.568;27.824;2022-11-20T08:28:21;98491.22;;;19.36;100.00
9672;BME280;4874;43.568;27.824;2022-11-20T08:30:49;98471.97;;;19.33;100.00
9672;BME280;4874;43.568;27.824;2022-11-20T08:33:17;98481.28;;;19.37;100.00
9672;BME280;4874;43.568;27.824;2022-11-20T08:35:44;98494.13;;;19.35;100.00
9672;BME280;4874;43.568;27.824;2022-11-20T08:38:11;98480.00;;;19.39;100.00
9672;BME280;4874;43.568;27.824;2022-11-20T08:40:38;98478.38;;;19.38;100.00
9672;BME280;4874;43.568;27.824;2022-11-20T08:43:04;98483.28;;;19.48;100.00
9672;BME280;4874;43.568;27.824;2022-11-20T08:45:31;98472.97;;;19.38;100.00
9672;BME280;4874;43.568;27.824;2022-11-20T08:48:01;98471.50;;;19.42;100.00
9672;BME280;4874;43.568;27.824;2022-11-20T08:50:28;98487.63;;;19.49;100.00
9672;BME280;4874;43.568;27.824;2022-11-20T08:53:06;98488.69;;;19.48;100.00
9672;BME280;4874;43.568;27.824;2022-11-20T08:55:33;98480.19;;;19.44;100.00
9672;BME280;4874;43.568;27.824;2022-11-20T08:58:06;98473.78;;;19.39;100.00
9672;BME280;4874;43.568;27.824;2022-11-20T09:00:33;98475.66;;;19.45;100.00
9672;BME280;4874;43.568;27.824;2022-11-20T09:03:01;98466.09;;;19.49;100.00
9672;BME280;4874;43.568;27.824;2022-11-20T09:05:28;98450.97;;;19.48;100.00
9672;BME280;4874;43.568;27.824;2022-11-20T09:07:58;98453.81;;;19.59;100.00
9672;BME280;4874;43.568;27.824;2022-11-20T09:10:28;98451.34;;;19.58;100.00
9672;BME280;4874;43.568;27.824;2022-11-20T09:12:55;98411.06;;;19.38;100.00
9672;BME280;4874;43.568;27.824;2022-11-20T09:15:23;98437.31;;;19.49;100.00
9672;BME280;4874;43.568;27.824;2022-11-20T09:17:58;98450.72;;;19.62;100.00
9672;BME280;4874;43.568;27.824;2022-11-20T09:20:26;98446.13;;;19.69;100.00
9672;BME280;4874;43.568;27.824;2022-11-20T09:22:53;98430.41;;;19.66;100.00
9672;BME280;4874;43.568;27.824;2022-11-20T09:25:19;98382.25;;;19.39;100.00
9672;BME280;4874;43.568;27.824;2022-11-20T09:27:46;98404.94;;;19.62;100.00
9672;BME280;4874;43.568;27.824;2022-11-20T09:30:14;98424.94;;;19.79;100.00
9672;BME280;4874;43.568;27.824;2022-11-20T09:32:42;98408.44;;;19.63;100.00
9672;BME280;4874;43.568;27.824;2022-11-20T09:35:10;98438.19;;;19.81;100.00
9672;BME280;4874;43.568;27.824;2022-11-20T09:37:36;98443.41;;;19.76;100.00
9672;BME280;4874;43.568;27.824;2022-11-20T09:40:04;98445.09;;;19.70;100.00
9672;BME280;4874;43.568;27.824;2022-11-20T09:42:41;98455.38;;;19.80;100.00
9672;BME280;4874;43.568;27.824;2022-11-20T09:56:11;98436.84;;;19.65;100.00
9672;BME280;4874;43.568;27.824;2022-11-20T09:58:46;98426.91;;;19.59;100.00
9672;BME280;4874;43.568;27.824;2022-11-20T10:01:17;98463.28;;;19.75;100.00
9672;BME280;4874;43.568;27.824;2022-11-20T10:06:34;98460.78;;;19.80;100.00
9672;BME280;4874;43.568;27.824;2022-11-20T10:09:21;98439.03;;;19.75;100.00
9672;BME280;4874;43.568;27.824;2022-11-20T10:25:21;98427.66;;;19.73;100.00
9672;BME280;4874;43.568;27.824;2022-11-20T10:30:23;98352.47;;;19.34;100.00
9672;BME280;4874;43.568;27.824;2022-11-20T10:32:58;98423.94;;;19.74;100.00
9672;BME280;4874;43.568;27.824;2022-11-20T10:35:38;98426.81;;;19.79;100.00
9672;BME280;4874;43.568;27.824;2022-11-20T10:38:21;98429.50;;;19.79;100.00
9672;BME280;4874;43.568;27.824;2022-11-20T10:40:56;98428.28;;;19.75;100.00
9672;BME280;4874;43.568;27.824;2022-11-20T10:43:48;98420.81;;;19.77;100.00
9672;BME280;4874;43.568;27.824;2022-11-20T10:46:20;98417.28;;;19.76;100.00
9672;BME280;4874;43.568;27.824;2022-11-20T10:48:51;98422.84;;;19.81;100.00
9672;BME280;4874;43.568;27.824;2022-11-20T10:57:20;98406.19;;;19.60;100.00
9672;BME280;4874;43.568;27.824;2022-11-20T11:00:05;98430.56;;;19.71;100.00
9672;BME280;4874;43.568;27.824;2022-11-20T11:02:53;98429.59;;;19.66;100.00
9672;BME280;4874;43.568;27.824;2022-11-20T11:05:44;98432.47;;;19.71;100.00
9672;BME280;4874;43.568;27.824;2022-11-20T11:08:17;98426.50;;;19.56;100.00
9672;BME280;4874;43.568;27.824;2022-11-20T11:10:53;98420.31;;;19.55;100.00
9672;BME280;4874;43.568;27.824;2022-11-20T11:13:21;98454.41;;;19.74;100.00
9672;BME280;4874;43.568;27.824;2022-11-20T11:15:49;98458.03;;;17.32;100.00
9672;BME280;4874;43.568;27.824;2022-11-20T11:18:28;98485.91;;;16.69;100.00
9672;BME280;4874;43.568;27.824;2022-11-20T11:20:57;98484.06;;;15.85;100.00
9672;BME280;4874;43.568;27.824;2022-11-20T11:23:36;98502.78;;;15.85;100.00
9672;BME280;4874;43.568;27.824;2022-11-20T11:26:06;98507.28;;;15.20;100.00
9672;BME280;4874;43.568;27.824;2022-11-20T11:28:33;98497.03;;;14.43;100.00
9672;BME280;4874;43.568;27.824;2022-11-20T11:31:00;98485.28;;;14.29;100.00
9672;BME280;4874;43.568;27.824;2022-11-20T11:33:29;98495.97;;;14.29;100.00
9672;BME280;4874;43.568;27.824;2022-11-20T11:36:00;98507.94;;;14.10;100.00
9672;BME280;4874;43.568;27.824;2022-11-20T11:38:37;98520.31;;;14.03;100.00
9672;BME280;4874;43.568;27.824;2022-11-20T11:41:08;98542.06;;;13.92;100.00
9672;BME280;4874;43.568;27.824;2022-11-20T11:43:37;98532.34;;;13.69;100.00
9672;BME280;4874;43.568;27.824;2022-11-20T11:49:14;98531.25;;;13.55;100.00
9672;BME280;4874;43.568;27.824;2022-11-20T11:56:55;98546.06;;;13.58;100.00
9672;BME280;4874;43.568;27.824;2022-11-20T12:02:22;98534.94;;;13.46;100.00
9672;BME280;4874;43.568;27.824;2022-11-20T12:04:58;98542.94;;;13.46;100.00
9672;BME280;4874;43.568;27.824;2022-11-20T12:10:39;98525.19;;;13.69;100.00
9672;BME280;4874;43.568;27.824;2022-11-20T12:13:15;98533.03;;;13.71;100.00
9672;BME280;4874;43.568;27.824;2022-11-20T12:15:46;98532.09;;;13.86;100.00
9672;BME280;4874;43.568;27.824;2022-11-20T12:18:19;98544.72;;;13.92;100.00
9672;BME280;4874;43.568;27.824;2022-11-20T12:44:01;98523.06;;;14.78;100.00
9672;BME280;4874;43.568;27.824;2022-11-20T12:49:50;98527.38;;;15.16;100.00
9672;BME280;4874;43.568;27.824;2022-11-20T12:52:44;98515.47;;;14.89;100.00
9672;BME280;4874;43.568;27.824;2022-11-20T12:55:16;98501.44;;;15.02;100.00
9672;BME280;4874;43.568;27.824;2022-11-20T13:00:22;98499.59;;;15.02;100.00
9672;BME280;4874;43.568;27.824;2022-11-20T13:05:53;98494.91;;;15.63;100.00
9672;BME280;4874;43.568;27.824;2022-11-20T13:08:28;98496.16;;;15.81;100.00
9672;BME280;4874;43.568;27.824;2022-11-20T13:16:36;98488.34;;;16.01;100.00
9672;BME280;4874;43.568;27.824;2022-11-20T13:19:05;98487.09;;;15.82;100.00
9672;BME280;4874;43.568;27.824;2022-11-20T13:21:39;98497.97;;;15.81;100.00
9672;BME280;4874;43.568;27.824;2022-11-20T13:26:46;98507.16;;;14.99;100.00
9672;BME280;4874;43.568;27.824;2022-11-20T13:29:19;98514.28;;;15.21;100.00
9672;BME280;4874;43.568;27.824;2022-11-20T13:31:47;98517.03;;;15.27;100.00
9672;BME280;4874;43.568;27.824;2022-11-20T13:34:25;98507.81;;;15.45;100.00
9672;BME280;4874;43.568;27.824;2022-11-20T13:36:55;98507.28;;;15.49;100.00
9672;BME280;4874;43.568;27.824;2022-11-20T13:39:31;98503.41;;;15.52;100.00
9672;BME280;4874;43.568;27.824;2022-11-20T13:44:43;98499.81;;;15.30;100.00
9672;BME280;4874;43.568;27.824;2022-11-20T13:47:22;98498.22;;;15.21;100.00
9672;BME280;4874;43.568;27.824;2022-11-20T13:49:54;98497.78;;;15.61;100.00
9672;BME280;4874;43.568;27.824;2022-11-20T14:00:58;98503.78;;;14.68;100.00
9672;BME280;4874;43.568;27.824;2022-11-20T14:03:30;98483.22;;;14.54;100.00
9672;BME280;4874;43.568;27.824;2022-11-20T14:06:32;98476.03;;;14.40;100.00
9672;BME280;4874;43.568;27.824;2022-11-20T14:08:59;98479.41;;;14.34;100.00
9672;BME280;4874;43.568;27.824;2022-11-20T14:11:30;98501.31;;;14.29;100.00
9672;BME280;4874;43.568;27.824;2022-11-20T14:14:04;98507.88;;;14.18;100.00
9672;BME280;4874;43.568;27.824;2022-11-20T14:16:34;98495.22;;;14.12;100.00
9672;BME280;4874;43.568;27.824;2022-11-20T14:21:54;98514.69;;;14.44;100.00
9672;BME280;4874;43.568;27.824;2022-11-20T14:24:22;98516.59;;;14.58;100.00
9672;BME280;4874;43.568;27.824;2022-11-20T14:26:50;98518.22;;;14.59;100.00
9672;BME280;4874;43.568;27.824;2022-11-20T14:29:26;98529.44;;;14.77;100.00
9672;BME280;4874;43.568;27.824;2022-11-20T14:31:54;98514.25;;;14.92;100.00
9672;BME280;4874;43.568;27.824;2022-11-20T14:34:25;98511.28;;;14.87;100.00
9672;BME280;4874;43.568;27.824;2022-11-20T14:36:59;98509.19;;;14.97;100.00
9672;BME280;4874;43.568;27.824;2022-11-20T14:39:31;98515.94;;;14.93;100.00
9672;BME280;4874;43.568;27.824;2022-11-20T14:41:59;98510.47;;;15.15;100.00
9672;BME280;4874;43.568;27.824;2022-11-20T14:44:29;98502.66;;;15.14;100.00
9672;BME280;4874;43.568;27.824;2022-11-20T14:46:59;98505.97;;;15.01;100.00
9672;BME280;4874;43.568;27.824;2022-11-20T14:49:26;98485.13;;;14.97;100.00
9672;BME280;4874;43.568;27.824;2022-11-20T14:52:14;98494.19;;;14.96;100.00
9672;BME280;4874;43.568;27.824;2022-11-20T14:54:49;98514.00;;;15.01;100.00
9672;BME280;4874;43.568;27.824;2022-11-20T14:57:35;98526.31;;;14.88;100.00
9672;BME280;4874;43.568;27.824;2022-11-20T15:02:41;98514.00;;;15.01;100.00
9672;BME280;4874;43.568;27.824;2022-11-20T15:05:09;98505.16;;;15.01;100.00
9672;BME280;4874;43.568;27.824;2022-11-20T15:07:37;98498.78;;;15.02;100.00